createdAt,value
2023-01-12T00:02:21.593Z,4.18
2023-01-12T00:07:24.569Z,4.17
2023-01-12T00:12:27.411Z,4.19
2023-01-12T00:17:30.162Z,4.18
2023-01-12T00:22:34.613Z,4.21
2023-01-12T00:27:37.349Z,4.27
2023-01-12T00:32:40.179Z,4.28
2023-01-12T00:37:42.955Z,4.28
2023-01-12T00:43:04.538Z,4.31
2023-01-12T00:48:12.848Z,4.33
2023-01-12T00:53:15.578Z,4.32
2023-01-12T00:58:18.329Z,4.33
2023-01-12T01:03:21.069Z,4.38
2023-01-12T01:08:23.842Z,4.39
2023-01-12T01:13:26.563Z,4.41
2023-01-12T01:18:30.411Z,4.45
2023-01-12T01:23:35.815Z,4.48
2023-01-12T01:28:39.288Z,4.53
2023-01-12T01:33:43.187Z,4.55
2023-01-12T01:38:47.741Z,4.57
2023-01-12T01:44:02.640Z,4.60
2023-01-12T01:49:28.724Z,4.64
2023-01-12T01:54:36.745Z,4.72
2023-01-12T01:59:45.719Z,4.74
2023-01-12T02:04:48.698Z,4.76
2023-01-12T02:09:51.560Z,4.76
2023-01-12T02:15:14.593Z,4.75
2023-01-12T02:20:51.020Z,4.78
2023-01-12T02:26:06.048Z,4.87
2023-01-12T02:31:40.692Z,4.91
2023-01-12T02:36:46.579Z,4.98
2023-01-12T02:42:48.047Z,5.03
2023-01-12T02:47:56.742Z,5.08
2023-01-12T02:53:22.715Z,5.10
2023-01-12T02:58:27.628Z,5.13
2023-01-12T03:03:31.344Z,5.20
2023-01-12T03:08:39.380Z,5.26
2023-01-12T03:13:50.525Z,5.31
2023-01-12T03:19:10.000Z,5.28
2023-01-12T03:24:21.889Z,5.29
2023-01-12T03:29:36.017Z,5.31
2023-01-12T03:34:39.029Z,5.29
2023-01-12T03:39:53.701Z,5.30
2023-01-12T03:45:30.349Z,5.34
2023-01-12T03:50:48.340Z,5.41
2023-01-12T03:55:56.366Z,5.47
2023-01-12T04:00:59.212Z,5.51
2023-01-12T04:06:02.049Z,5.53
2023-01-12T04:11:24.898Z,5.57
2023-01-12T04:16:27.678Z,5.57
2023-01-12T04:21:49.100Z,5.58
2023-01-12T04:26:51.899Z,5.63
2023-01-12T04:31:54.679Z,5.80
2023-01-12T04:36:57.721Z,6.05
2023-01-12T04:42:00.559Z,6.28
2023-01-12T04:47:03.491Z,6.47
2023-01-12T04:52:06.236Z,6.65
2023-01-12T04:57:08.960Z,6.76
2023-01-12T05:02:12.015Z,6.80
2023-01-12T05:07:16.206Z,6.87
2023-01-12T05:12:19.148Z,6.90
2023-01-12T05:17:21.930Z,6.98
2023-01-12T05:22:24.743Z,7.08
2023-01-12T05:27:27.558Z,7.16
2023-01-12T05:32:30.330Z,7.26
2023-01-12T05:37:33.095Z,7.30
2023-01-12T05:42:54.580Z,7.31
2023-01-12T05:47:59.409Z,7.35
2023-01-12T05:53:02.581Z,7.45
2023-01-12T05:58:05.661Z,7.42
2023-01-12T06:03:08.409Z,7.40
2023-01-12T06:08:12.290Z,7.40
2023-01-12T06:13:34.775Z,7.33
2023-01-12T06:18:39.241Z,7.36
2023-01-12T06:23:42.096Z,7.44
2023-01-12T06:28:44.978Z,7.44
2023-01-12T06:33:47.781Z,7.43
2023-01-12T06:38:54.061Z,7.48
2023-01-12T06:43:57.852Z,7.49
2023-01-12T06:49:00.758Z,7.49
2023-01-12T06:54:03.666Z,7.53
2023-01-12T06:59:07.822Z,7.49
2023-01-12T07:04:13.684Z,7.30
2023-01-12T07:09:17.579Z,7.14
2023-01-12T07:14:20.521Z,7.02
2023-01-12T07:19:23.994Z,6.92
2023-01-12T07:24:26.812Z,6.92
2023-01-12T07:29:29.741Z,6.93
2023-01-12T07:34:32.774Z,6.93
2023-01-12T07:39:35.614Z,6.96
2023-01-12T07:44:40.359Z,7.01
2023-01-12T07:49:44.954Z,7.15
2023-01-12T07:54:48.113Z,7.23
2023-01-12T07:59:51.317Z,7.23
2023-01-12T08:04:55.033Z,7.20
2023-01-12T08:09:58.079Z,7.07
2023-01-12T08:15:01.024Z,6.96
2023-01-12T08:20:14.429Z,6.90
2023-01-12T08:25:28.537Z,6.86
2023-01-12T08:30:31.887Z,6.90
2023-01-12T08:35:36.038Z,6.96
2023-01-12T08:40:57.680Z,7.09
2023-01-12T08:46:08.631Z,7.26
2023-01-12T08:51:12.486Z,7.42
2023-01-12T08:56:19.723Z,7.56
2023-01-12T09:01:23.178Z,7.64
2023-01-12T09:06:31.582Z,7.78
2023-01-12T09:11:35.932Z,7.86
2023-01-12T09:16:39.404Z,7.98
2023-01-12T09:21:43.817Z,8.08
2023-01-12T09:26:47.206Z,8.11
2023-01-12T09:31:50.367Z,8.21
2023-01-12T09:36:53.304Z,8.25
2023-01-12T09:42:16.998Z,8.19
2023-01-12T09:47:26.024Z,8.17
2023-01-12T09:52:36.665Z,8.19
2023-01-12T09:57:58.193Z,8.19
2023-01-12T10:03:21.223Z,8.21
2023-01-12T10:08:47.407Z,8.06
2023-01-12T10:13:57.158Z,7.91
2023-01-12T10:19:08.918Z,7.84
2023-01-12T10:24:13.298Z,7.76
2023-01-12T10:29:16.520Z,7.74
2023-01-12T10:34:19.613Z,7.74
2023-01-12T10:39:31.145Z,7.72
2023-01-12T10:44:35.734Z,7.76
2023-01-12T10:49:39.419Z,7.79
2023-01-12T10:54:50.044Z,7.79
2023-01-12T11:00:02.900Z,7.85
2023-01-12T11:05:30.797Z,7.90
2023-01-12T11:10:39.939Z,7.83
2023-01-12T11:16:01.200Z,7.78
2023-01-12T11:21:11.553Z,7.74
2023-01-12T11:26:24.731Z,7.69
2023-01-12T11:31:39.447Z,7.64
2023-01-12T11:36:46.729Z,7.60
2023-01-12T11:42:12.506Z,7.52
2023-01-12T11:47:20.884Z,7.48
2023-01-12T11:52:26.165Z,7.48
2023-01-12T11:57:52.039Z,7.50
2023-01-12T12:03:30.526Z,7.49
2023-01-12T12:09:19.017Z,7.50
2023-01-12T12:14:38.772Z,7.52
2023-01-12T12:20:18.594Z,7.58
2023-01-12T12:25:27.340Z,7.65
2023-01-12T12:30:45.990Z,7.72
2023-01-12T12:36:06.987Z,7.73
2023-01-12T12:41:38.892Z,7.75
2023-01-12T12:47:07.994Z,7.73
2023-01-12T12:52:13.393Z,7.67
2023-01-12T12:57:16.503Z,7.63
2023-01-12T13:02:41.140Z,7.59
2023-01-12T13:07:51.718Z,7.55
2023-01-12T13:13:44.249Z,7.54
2023-01-12T13:18:52.950Z,7.53
2023-01-12T13:24:14.064Z,7.51
2023-01-12T13:29:29.079Z,7.50
2023-01-12T13:34:32.230Z,7.49
2023-01-12T13:39:38.080Z,7.46
2023-01-12T13:44:44.759Z,7.43
2023-01-12T13:49:52.990Z,7.42
2023-01-12T13:54:56.185Z,7.38
2023-01-12T14:00:11.272Z,7.30
2023-01-12T14:05:17.340Z,7.22
2023-01-12T14:10:33.075Z,7.18
2023-01-12T14:16:03.544Z,7.14
2023-01-12T14:21:21.221Z,7.10
2023-01-12T14:26:27.131Z,7.10
2023-01-12T14:31:39.577Z,7.09
2023-01-12T14:36:45.464Z,7.07
2023-01-12T14:42:14.247Z,7.04
2023-01-12T14:47:28.435Z,7.00
2023-01-12T14:52:33.625Z,6.95
2023-01-12T14:57:37.254Z,6.91
2023-01-12T15:02:41.561Z,6.86
2023-01-12T15:08:00.068Z,6.82
2023-01-12T15:13:24.861Z,6.80
2023-01-12T15:18:48.535Z,6.78
2023-01-12T15:24:09.888Z,6.74
2023-01-12T15:29:12.757Z,6.67
2023-01-12T15:34:16.913Z,6.59
2023-01-12T15:39:19.738Z,6.53
2023-01-12T15:44:22.610Z,6.55
2023-01-12T15:49:25.557Z,6.55
2023-01-12T15:54:28.416Z,6.51
2023-01-12T15:59:31.196Z,6.49
2023-01-12T16:04:42.570Z,6.49
2023-01-12T16:09:47.881Z,6.53
2023-01-12T16:14:51.277Z,6.63
2023-01-12T16:19:54.139Z,6.73
2023-01-12T16:24:59.864Z,6.84
2023-01-12T16:30:03.609Z,6.92
2023-01-12T16:35:06.787Z,6.96
2023-01-12T16:40:10.332Z,7.01
2023-01-12T16:45:14.001Z,7.01
2023-01-12T16:50:16.861Z,7.00
2023-01-12T16:55:19.644Z,7.02
2023-01-12T17:00:22.736Z,7.06
2023-01-12T17:05:26.025Z,7.06
2023-01-12T17:10:28.934Z,7.04
2023-01-12T17:15:33.618Z,7.05
2023-01-12T17:20:36.659Z,7.08
2023-01-12T17:25:39.520Z,7.11
2023-01-12T17:30:43.059Z,7.08
2023-01-12T17:35:46.227Z,7.02
2023-01-12T17:40:49.195Z,6.95
2023-01-12T17:45:52.487Z,6.91
2023-01-12T17:50:55.354Z,6.88
2023-01-12T17:56:02.583Z,6.84
2023-01-12T18:01:13.426Z,6.82
2023-01-12T18:06:25.749Z,6.78
2023-01-12T18:11:31.364Z,6.75
2023-01-12T18:16:36.105Z,6.74
2023-01-12T18:21:38.878Z,6.72
2023-01-12T18:26:41.788Z,6.72
2023-01-12T18:31:47.496Z,6.77
2023-01-12T18:36:50.448Z,6.83
2023-01-12T18:42:11.871Z,6.87
2023-01-12T18:47:33.877Z,6.92
2023-01-12T18:52:55.171Z,6.92
2023-01-12T18:57:57.958Z,6.96
2023-01-12T19:03:00.875Z,6.96
2023-01-12T19:08:23.709Z,6.96
2023-01-12T19:13:45.828Z,6.99
2023-01-12T19:18:48.587Z,7.01
2023-01-12T19:24:10.513Z,7.02
2023-01-12T19:29:13.319Z,7.06
2023-01-12T19:34:16.163Z,7.07
2023-01-12T19:39:27.080Z,7.07
2023-01-12T19:44:30.029Z,7.08
2023-01-12T19:49:32.997Z,7.08
2023-01-12T19:54:36.102Z,7.07
2023-01-12T19:59:38.930Z,7.09
2023-01-12T20:04:41.715Z,7.07
2023-01-12T20:09:45.998Z,7.04
2023-01-12T20:14:48.800Z,7.02
2023-01-12T20:19:57.687Z,7.01
2023-01-12T20:25:04.023Z,7.01
2023-01-12T20:30:08.248Z,6.99
2023-01-12T20:35:18.978Z,6.96
2023-01-12T20:40:21.851Z,6.96
2023-01-12T20:45:25.270Z,6.95
2023-01-12T20:50:30.112Z,6.93
2023-01-12T20:55:33.080Z,6.90
2023-01-12T21:00:36.319Z,6.90
2023-01-12T21:05:44.280Z,6.92
2023-01-12T21:10:50.191Z,6.96
2023-01-12T21:16:04.611Z,7.00
2023-01-12T21:21:08.395Z,7.03
2023-01-12T21:26:11.380Z,7.06
2023-01-12T21:31:14.423Z,7.08
2023-01-12T21:36:19.059Z,7.10
2023-01-12T21:41:22.591Z,7.14
2023-01-12T21:46:25.999Z,7.14
2023-01-12T21:51:29.199Z,7.15
2023-01-12T21:56:32.026Z,7.18
2023-01-12T22:01:35.089Z,7.21
2023-01-12T22:06:38.000Z,7.24
2023-01-12T22:11:40.977Z,7.27
2023-01-12T22:16:43.719Z,7.28
2023-01-12T22:21:46.510Z,7.29
2023-01-12T22:26:49.270Z,7.29
2023-01-12T22:31:52.122Z,7.28
2023-01-12T22:36:56.809Z,7.26
2023-01-12T22:41:59.569Z,7.26
2023-01-12T22:47:02.322Z,7.25
2023-01-12T22:52:05.521Z,7.23
2023-01-12T22:57:09.786Z,7.24
2023-01-12T23:02:31.683Z,7.24
2023-01-12T23:07:34.646Z,7.24
2023-01-12T23:12:37.496Z,7.25
2023-01-12T23:17:40.472Z,7.25
2023-01-12T23:22:43.834Z,7.24
2023-01-12T23:27:46.660Z,7.25
2023-01-12T23:32:49.545Z,7.24
2023-01-12T23:37:53.480Z,7.23
2023-01-12T23:42:56.596Z,7.24
2023-01-12T23:47:59.413Z,7.25
2023-01-12T23:53:02.253Z,7.26
2023-01-12T23:58:06.523Z,7.29
